Time;durP1;ratioP1;P1;durP2;ratioP2;P2;SDS_P1;SDS_P2;PMS_P1;PMS_P2;Temp;Humidity;BMP_temperature;BMP_pressure;BME280_temperature;BME280_humidity;BME280_pressure;Samples;Min_cycle;Max_cycle;Signal;HPM_P1;HPM_P2
2022/10/20 00:01:27;;;;;;;;;;;15.60;67.40;;;11.24;100.00;95816.25;4975061;28;19948;-50
2022/10/20 00:03:54;;;;;;;;;;;15.60;67.40;;;11.25;100.00;95811.72;4978330;28;19913;-47
2022/10/20 00:06:25;;;;;;;;;;;15.60;67.40;;;11.27;100.00;95814.94;4992055;28;20287;-47
2022/10/20 00:08:54;;;;;;;;;;;15.60;67.50;;;11.33;100.00;95816.53;4989833;28;19909;-47
2022/10/20 00:11:22;;;;;;;;;;;15.60;67.60;;;11.39;100.00;95818.16;4993767;28;20320;-50
2022/10/20 00:13:51;;;;;;;;;;;15.60;67.70;;;11.40;100.00;95822.41;5006502;28;19913;-48
2022/10/20 00:16:18;;;;;;;;;;;15.60;67.70;;;11.41;100.00;95816.03;4980688;28;20337;-46
2022/10/20 00:18:45;;;;;;;;;;;15.70;67.80;;;11.42;100.00;95806.16;5006365;28;19917;-51
2022/10/20 00:21:19;;;;;;;;;;;15.60;67.70;;;11.45;100.00;95806.44;4988088;28;19916;-47
2022/10/20 00:23:45;;;;;;;;;;;15.70;67.80;;;11.47;100.00;95800.81;4990164;28;19909;-47
2022/10/20 00:26:24;;;;;;;;;;;15.70;67.80;;;11.50;100.00;95797.63;4990584;28;19909;-49
2022/10/20 00:28:51;;;;;;;;;;;15.70;67.80;;;11.50;100.00;95803.78;4998439;28;19909;-49
2022/10/20 00:31:19;;;;;;;;;;;15.70;67.80;;;11.48;100.00;95808.56;4972748;28;19914;-49
2022/10/20 00:33:46;;;;;;;;;;;15.70;67.90;;;11.50;100.00;95803.78;4985604;28;20272;-47
2022/10/20 00:36:16;;;;;;;;;;;15.70;67.80;;;11.51;100.00;95800.03;4990035;28;19909;-48
2022/10/20 00:38:43;;;;;;;;;;;15.70;67.80;;;11.53;100.00;95797.91;4990619;28;19920;-47
2022/10/20 00:41:14;;;;;;;;;;;15.70;67.90;;;11.55;100.00;95795.78;4999796;28;19909;-50
2022/10/20 00:44:39;;;;;;;;;;;15.70;67.90;;;11.58;100.00;95787.25;4988818;28;19921;-48
2022/10/20 00:47:18;;;;;;;;;;;15.80;68.00;;;11.61;100.00;95782.44;4999143;28;20303;-47
2022/10/20 00:49:50;;;;;;;;;;;15.80;68.10;;;11.62;100.00;95800.03;4977035;28;19917;-48
2022/10/20 00:52:20;;;;;;;;;;;15.80;68.10;;;11.60;100.00;95795.00;4972417;28;20513;-46
2022/10/20 00:54:50;;;;;;;;;;;15.80;68.10;;;11.61;100.00;95795.78;4981122;28;20009;-50
2022/10/20 00:57:16;;;;;;;;;;;15.80;68.00;;;11.62;100.00;95789.38;4990494;28;19910;-50
2022/10/20 00:59:43;;;;;;;;;;;15.80;68.00;;;11.59;100.00;95790.69;4990129;28;19914;-50
2022/10/20 01:02:15;;;;;;;;;;;15.80;68.00;;;11.61;100.00;95782.44;4989336;28;19909;-49
2022/10/20 01:04:42;;;;;;;;;;;15.80;68.00;;;11.63;100.00;95777.66;4990428;28;20380;-47
2022/10/20 01:07:14;;;;;;;;;;;15.80;68.10;;;11.65;100.00;95783.50;5006004;28;19917;-48
2022/10/20 01:09:43;;;;;;;;;;;15.90;68.20;;;11.65;100.00;95778.97;4988813;28;19916;-48
2022/10/20 01:12:12;;;;;;;;;;;15.90;68.20;;;11.66;100.00;95779.75;4990785;28;19994;-46
2022/10/20 01:15:13;;;;;;;;;;;15.90;68.40;;;11.67;100.00;95774.19;4991077;28;19914;-47
2022/10/20 01:18:10;;;;;;;;;;;15.80;68.10;;;11.71;100.00;95779.78;4982439;28;20421;-50
2022/10/20 01:21:13;;;;;;;;;;;15.90;68.20;;;11.69;100.00;95768.56;4990026;28;19921;-50
2022/10/20 01:24:25;;;;;;;;;;;15.90;68.20;;;11.67;100.00;95781.38;4986300;28;19914;-46
2022/10/20 01:27:38;;;;;;;;;;;15.90;68.20;;;11.63;100.00;95772.31;4976625;28;19913;-46
2022/10/20 01:30:37;;;;;;;;;;;15.90;68.20;;;11.62;100.00;95762.69;5005304;28;20506;-47
2022/10/20 01:33:20;;;;;;;;;;;15.80;68.20;;;11.61;100.00;95761.09;4986835;28;20004;-46
2022/10/20 01:36:08;;;;;;;;;;;15.80;68.20;;;11.57;100.00;95755.50;4986928;28;19936;-46
2022/10/20 01:39:13;;;;;;;;;;;15.80;68.20;;;11.54;100.00;95758.69;4957945;28;20384;-46
2022/10/20 01:41:55;;;;;;;;;;;15.80;68.90;;;11.53;100.00;95755.25;4998156;28;20284;-47
2022/10/20 01:44:29;;;;;;;;;;;15.80;68.20;;;11.51;100.00;95743.22;4989946;28;20005;-46
2022/10/20 01:46:57;;;;;;;;;;;15.80;68.30;;;11.54;100.00;95740.03;4991874;28;20003;-47
2022/10/20 01:49:25;;;;;;;;;;;15.80;68.30;;;11.53;100.00;95731.22;4993640;28;19909;-47
2022/10/20 01:51:51;;;;;;;;;;;15.80;68.40;;;11.56;100.00;95727.19;4991781;28;19909;-47
2022/10/20 01:54:28;;;;;;;;;;;15.80;68.50;;;11.57;100.00;95720.81;4993143;28;19917;-50
2022/10/20 01:57:08;;;;;;;;;;;15.80;68.50;;;11.61;100.00;95721.88;4993371;28;20397;-51
2022/10/20 02:00:14;;;;;;;;;;;15.80;68.50;;;11.62;100.00;95720.81;4994063;28;19967;-46
2022/10/20 02:03:24;;;;;;;;;;;15.90;68.60;;;11.63;100.00;95714.41;4992315;28;19913;-48
2022/10/20 02:06:34;;;;;;;;;;;15.80;68.50;;;11.67;100.00;95734.16;4994548;28;19909;-46
2022/10/20 02:09:10;;;;;;;;;;;15.90;68.60;;;11.67;100.00;95730.69;4991817;28;19909;-48
2022/10/20 02:12:14;;;;;;;;;;;15.80;68.50;;;11.60;100.00;95722.97;5006780;28;20004;-47
2022/10/20 02:14:46;;;;;;;;;;;15.80;68.40;;;11.51;100.00;95722.69;4989747;28;19996;-49
2022/10/20 02:17:20;;;;;;;;;;;15.80;68.30;;;11.48;100.00;95723.22;4993564;28;19916;-45
2022/10/20 02:19:50;;;;;;;;;;;15.80;68.40;;;11.48;100.00;95722.41;4993684;28;20356;-49
2022/10/20 02:22:20;;;;;;;;;;;15.80;68.40;;;11.47;100.00;95726.97;5004298;28;19913;-51
2022/10/20 02:24:46;;;;;;;;;;;15.80;69.20;;;11.45;100.00;95720.28;4992699;28;19972;-48
2022/10/20 02:27:26;;;;;;;;;;;15.70;68.30;;;11.38;100.00;95719.75;4991719;28;19913;-46
2022/10/20 02:30:16;;;;;;;;;;;15.70;68.40;;;11.31;100.00;95718.16;4969281;28;19920;-49
2022/10/20 02:32:48;;;;;;;;;;;15.60;68.30;;;11.28;100.00;95715.19;4992076;28;19932;-47
2022/10/20 02:35:29;;;;;;;;;;;15.60;68.30;;;11.24;100.00;95717.59;4997527;28;19984;-46
2022/10/20 02:37:56;;;;;;;;;;;15.60;68.40;;;11.19;100.00;95704.25;4992231;28;19963;-53
2022/10/20 02:40:22;;;;;;;;;;;15.60;68.40;;;11.20;100.00;95707.72;4982529;28;19914;-49
2022/10/20 02:42:48;;;;;;;;;;;15.60;68.40;;;11.27;100.00;95710.94;4975746;28;19933;-49
2022/10/20 02:45:14;;;;;;;;;;;15.60;68.60;;;11.28;100.00;95708.00;4958849;28;20020;-45
2022/10/20 02:47:43;;;;;;;;;;;15.60;68.60;;;11.32;100.00;95711.75;4976199;28;20394;-50
2022/10/20 02:50:10;;;;;;;;;;;15.60;68.60;;;11.32;100.00;95716.28;5008445;28;19953;-49
2022/10/20 02:52:39;;;;;;;;;;;15.60;68.70;;;11.35;100.00;95707.75;4990567;28;19971;-46
2022/10/20 02:55:05;;;;;;;;;;;15.60;68.80;;;11.34;100.00;95722.94;4991425;28;20015;-50
2022/10/20 02:57:43;;;;;;;;;;;15.60;68.80;;;11.34;100.00;95724.78;4991932;28;19909;-50
2022/10/20 03:00:21;;;;;;;;;;;15.60;68.70;;;11.32;100.00;95714.41;4999683;28;19917;-51
2022/10/20 03:02:47;;;;;;;;;;;15.60;68.70;;;11.30;100.00;95705.06;4975161;28;19928;-49
2022/10/20 03:05:14;;;;;;;;;;;15.60;68.70;;;11.31;100.00;95712.00;4991809;28;20346;-50
2022/10/20 03:07:42;;;;;;;;;;;15.60;68.80;;;11.32;100.00;95718.94;4991563;28;19957;-49
2022/10/20 03:10:18;;;;;;;;;;;15.60;68.90;;;11.28;100.00;95715.19;4991859;28;19945;-54
2022/10/20 03:12:47;;;;;;;;;;;15.60;68.80;;;11.33;100.00;95725.88;4992375;28;20020;-52
2022/10/20 03:15:19;;;;;;;;;;;15.60;68.90;;;11.35;100.00;95734.41;4991218;28;19948;-55
2022/10/20 03:17:44;;;;;;;;;;;15.60;68.90;;;11.34;100.00;95733.63;4983117;28;20284;-50
2022/10/20 03:20:13;;;;;;;;;;;15.60;68.90;;;11.32;100.00;95717.06;4971975;28;19917;-52
2022/10/20 03:22:42;;;;;;;;;;;15.60;68.90;;;11.35;100.00;95716.53;4987690;28;19960;-51
2022/10/20 03:25:26;;;;;;;;;;;15.60;68.90;;;11.37;100.00;95713.59;4991091;28;19920;-53
2022/10/20 03:27:55;;;;;;;;;;;15.60;69.00;;;11.40;100.00;95710.41;4987379;28;19909;-53
2022/10/20 03:30:20;;;;;;;;;;;15.70;69.10;;;11.40;100.00;95729.06;4988150;28;19909;-54
2022/10/20 03:32:46;;;;;;;;;;;15.70;69.10;;;11.41;100.00;95732.56;4990863;28;19909;-51
2022/10/20 03:35:15;;;;;;;;;;;15.60;69.00;;;11.37;100.00;95737.59;4984941;28;19960;-52
2022/10/20 03:37:40;;;;;;;;;;;15.60;69.00;;;11.34;100.00;95733.63;4971831;28;20388;-51
2022/10/20 03:40:16;;;;;;;;;;;15.70;69.00;;;11.31;100.00;95717.31;4968724;28;19955;-52
2022/10/20 03:42:41;;;;;;;;;;;15.60;68.90;;;11.27;100.00;95724.25;4988713;28;19913;-54
2022/10/20 03:45:10;;;;;;;;;;;15.60;68.90;;;11.23;100.00;95713.31;4973248;28;20289;-54
2022/10/20 03:47:36;;;;;;;;;;;15.60;68.90;;;11.15;100.00;95707.72;4992232;28;19909;-52
2022/10/20 03:50:03;;;;;;;;;;;15.60;68.90;;;11.13;100.00;95700.00;4992018;28;19995;-52
2022/10/20 03:52:38;;;;;;;;;;;15.50;68.80;;;11.15;100.00;95705.03;4988906;28;19909;-55
2022/10/20 03:55:10;;;;;;;;;;;15.50;68.80;;;11.09;100.00;95718.38;4976672;28;20315;-55
2022/10/20 03:57:39;;;;;;;;;;;15.50;68.80;;;11.03;100.00;95714.09;4990782;28;19916;-51
2022/10/20 04:00:09;;;;;;;;;;;15.40;68.70;;;10.99;100.00;95728.22;4990590;28;19913;-53
2022/10/20 04:02:44;;;;;;;;;;;15.40;68.70;;;10.93;100.00;95729.25;4990599;28;20265;-52
2022/10/20 04:05:19;;;;;;;;;;;15.40;69.60;;;10.89;100.00;95718.31;5005301;28;20370;-53
2022/10/20 04:07:46;;;;;;;;;;;15.30;68.80;;;10.83;100.00;95706.84;4990450;28;20384;-50
2022/10/20 04:10:14;;;;;;;;;;;15.30;68.80;;;10.81;100.00;95705.50;4989613;28;19920;-53
2022/10/20 04:12:41;;;;;;;;;;;15.30;68.80;;;10.75;100.00;95695.88;4990587;28;19954;-51
2022/10/20 04:15:10;;;;;;;;;;;15.20;68.70;;;10.68;100.00;95685.50;4989291;28;19916;-53
2022/10/20 04:17:39;;;;;;;;;;;15.20;68.70;;;10.60;100.00;95694.00;4974465;28;19963;-52
2022/10/20 04:20:11;;;;;;;;;;;15.10;68.70;;;10.55;100.00;95699.31;4990111;28;20392;-50
2022/10/20 04:22:40;;;;;;;;;;;15.10;68.70;;;10.51;100.00;95706.22;4999944;28;19947;-52
2022/10/20 04:25:10;;;;;;;;;;;15.00;68.70;;;10.47;100.00;95716.59;4990813;28;19949;-55
2022/10/20 04:27:40;;;;;;;;;;;15.00;68.80;;;10.48;100.00;95710.19;4978659;28;20394;-51
2022/10/20 04:30:07;;;;;;;;;;;14.90;68.90;;;10.48;100.00;95702.22;4991526;28;19910;-49
2022/10/20 04:32:36;;;;;;;;;;;14.90;69.00;;;10.44;100.00;95695.03;4980208;28;19948;-49
2022/10/20 04:35:05;;;;;;;;;;;14.90;69.00;;;10.41;100.00;95694.47;4989777;28;19951;-49
2022/10/20 04:37:37;;;;;;;;;;;14.90;69.00;;;10.38;100.00;95689.66;4991395;28;19916;-48
2022/10/20 04:40:03;;;;;;;;;;;14.90;69.10;;;10.39;100.00;95680.59;4990035;28;19920;-50
2022/10/20 04:42:38;;;;;;;;;;;14.90;69.10;;;10.38;100.00;95675.56;4990165;28;20008;-49
2022/10/20 04:45:04;;;;;;;;;;;14.90;69.10;;;10.35;100.00;95673.41;5004476;28;20163;-48
2022/10/20 04:47:39;;;;;;;;;;;14.80;69.00;;;10.31;100.00;95667.81;4989794;28;19980;-50
2022/10/20 04:50:14;;;;;;;;;;;14.80;69.00;;;10.28;100.00;95657.69;4991316;28;19910;-50
2022/10/20 04:52:46;;;;;;;;;;;14.80;69.00;;;10.23;100.00;95649.63;4997410;28;19909;-49
2022/10/20 04:55:12;;;;;;;;;;;14.80;69.00;;;10.22;100.00;95655.22;5005412;28;20008;-50
2022/10/20 04:57:43;;;;;;;;;;;14.70;69.00;;;10.16;100.00;95654.41;4989986;28;19996;-52
2022/10/20 05:00:13;;;;;;;;;;;14.70;69.00;;;10.15;100.00;95656.25;4989965;28;20404;-52
2022/10/20 05:02:45;;;;;;;;;;;14.70;69.00;;;10.09;100.00;95654.63;4975285;28;20012;-53
2022/10/20 05:05:11;;;;;;;;;;;14.60;69.00;;;10.05;100.00;95653.53;4979572;28;19993;-51
2022/10/20 05:07:42;;;;;;;;;;;14.60;69.00;;;10.05;100.00;95650.88;4970869;28;20040;-53
2022/10/20 05:10:11;;;;;;;;;;;14.50;69.10;;;10.04;100.00;95648.50;4984309;28;20379;-52
2022/10/20 05:12:49;;;;;;;;;;;14.50;69.20;;;10.06;100.00;95657.00;4994859;28;19951;-49
2022/10/20 05:15:15;;;;;;;;;;;14.50;69.30;;;10.04;100.00;95643.97;4993928;28;19920;-53
2022/10/20 05:17:41;;;;;;;;;;;14.50;69.40;;;10.10;100.00;95650.13;4990012;28;19928;-50
2022/10/20 05:20:07;;;;;;;;;;;14.50;69.40;;;10.15;100.00;95655.44;4998142;28;19918;-50
2022/10/20 05:22:33;;;;;;;;;;;14.60;69.50;;;10.19;100.00;95657.34;4976085;28;20399;-53
2022/10/20 05:25:05;;;;;;;;;;;14.60;69.60;;;10.25;100.00;95647.53;4993054;28;19913;-50
2022/10/20 05:27:31;;;;;;;;;;;14.70;69.60;;;10.32;100.00;95640.13;4998414;28;19949;-49
2022/10/20 05:29:56;;;;;;;;;;;14.70;69.60;;;10.35;100.00;95641.47;5000630;28;19991;-48
2022/10/20 05:32:22;;;;;;;;;;;14.80;69.60;;;10.37;100.00;95626.81;4994571;28;19951;-44
2022/10/20 05:34:48;;;;;;;;;;;14.80;69.50;;;10.46;100.00;95628.97;4993522;28;19968;-46
2022/10/20 05:37:13;;;;;;;;;;;14.90;69.60;;;10.50;100.00;95636.19;4994336;28;19939;-47
2022/10/20 05:39:42;;;;;;;;;;;14.90;69.50;;;10.56;100.00;95624.47;5008201;28;19963;-45
2022/10/20 05:42:14;;;;;;;;;;;15.00;69.60;;;10.64;100.00;95629.28;5009507;28;19909;-47
2022/10/20 05:44:46;;;;;;;;;;;15.00;69.60;;;10.71;100.00;95630.88;4979265;28;20008;-43
2022/10/20 05:47:12;;;;;;;;;;;15.10;69.60;;;10.74;100.00;95625.03;4992631;28;19913;-45
2022/10/20 05:49:37;;;;;;;;;;;15.10;69.60;;;10.78;100.00;95624.25;4992488;28;20343;-44
2022/10/20 05:52:03;;;;;;;;;;;15.20;69.60;;;10.80;100.00;95611.44;4993457;28;19917;-44
2022/10/20 05:54:32;;;;;;;;;;;15.20;69.50;;;10.83;100.00;95604.78;4993372;28;20007;-44
2022/10/20 05:56:58;;;;;;;;;;;15.30;69.50;;;10.83;100.00;95600.25;4993523;28;20003;-45
2022/10/20 05:59:24;;;;;;;;;;;15.30;69.40;;;10.84;100.00;95593.88;4989648;28;20468;-51
2022/10/20 06:01:51;;;;;;;;;;;15.30;69.40;;;10.84;100.00;95596.56;4968494;28;19997;-48
2022/10/20 06:04:26;;;;;;;;;;;15.30;69.40;;;10.91;100.00;95604.28;4986793;28;19945;-44
2022/10/20 06:06:53;;;;;;;;;;;15.30;69.40;;;10.91;100.00;95596.28;4980899;28;19913;-43
2022/10/20 06:09:21;;;;;;;;;;;15.40;69.40;;;10.93;100.00;95617.31;4916348;28;25072;-44
2022/10/20 06:11:51;;;;;;;;;;;15.40;69.40;;;11.00;100.00;95624.00;4989688;28;19913;-46
2022/10/20 06:14:18;;;;;;;;;;;15.40;69.40;;;11.04;100.00;95624.28;4992132;28;19920;-46
2022/10/20 06:16:44;;;;;;;;;;;15.50;69.50;;;11.05;100.00;95631.19;4998069;28;19917;-50
2022/10/20 06:19:10;;;;;;;;;;;15.50;69.50;;;11.04;100.00;95634.94;4992976;28;19925;-50
2022/10/20 06:21:37;;;;;;;;;;;15.50;69.40;;;11.08;100.00;95638.66;4991290;28;19979;-47
2022/10/20 06:24:05;;;;;;;;;;;15.50;69.40;;;11.12;100.00;95637.06;4983494;28;19910;-50
2022/10/20 06:26:35;;;;;;;;;;;15.60;69.50;;;11.15;100.00;95633.06;4976741;28;19913;-45
2022/10/20 06:29:04;;;;;;;;;;;15.70;69.50;;;11.21;100.00;95646.13;4988505;28;19918;-44
2022/10/20 06:31:38;;;;;;;;;;;15.70;69.40;;;11.28;100.00;95638.69;4975992;28;19909;-45
2022/10/20 06:34:08;;;;;;;;;;;15.80;69.40;;;11.33;100.00;95637.88;4984866;28;19945;-44
2022/10/20 06:36:40;;;;;;;;;;;15.90;69.40;;;11.39;100.00;95636.78;4987785;28;19964;-45
2022/10/20 06:39:16;;;;;;;;;;;16.00;69.40;;;11.44;100.00;95650.13;4962196;28;19952;-44
2022/10/20 06:41:47;;;;;;;;;;;16.00;69.40;;;11.47;100.00;95662.13;5008137;28;19913;-45
2022/10/20 06:44:21;;;;;;;;;;;16.10;69.30;;;11.54;100.00;95657.31;4993216;28;19916;-44
2022/10/20 06:46:53;;;;;;;;;;;16.20;69.30;;;11.63;100.00;95646.91;5006227;28;20000;-44
2022/10/20 06:49:25;;;;;;;;;;;16.20;69.20;;;11.65;100.00;95640.22;4993357;28;20261;-45
2022/10/20 06:51:54;;;;;;;;;;;16.30;69.20;;;11.70;100.00;95644.75;4992384;28;20291;-44
2022/10/20 06:54:19;;;;;;;;;;;16.30;69.00;;;11.78;100.00;95652.22;4992709;28;19909;-52
2022/10/20 06:56:45;;;;;;;;;;;16.40;69.00;;;11.79;100.00;95651.94;4992598;28;19921;-44
2022/10/20 06:59:20;;;;;;;;;;;16.50;69.00;;;11.87;100.00;95629.25;4999111;28;19913;-45
2022/10/20 07:01:46;;;;;;;;;;;16.60;69.00;;;11.90;100.00;95626.06;5008055;28;19909;-46
2022/10/20 07:04:15;;;;;;;;;;;16.70;68.90;;;11.94;100.00;95636.97;4982297;28;19992;-44
2022/10/20 07:06:44;;;;;;;;;;;16.80;68.90;;;12.02;100.00;95639.09;4993136;28;19940;-44
2022/10/20 07:09:19;;;;;;;;;;;16.90;68.80;;;12.14;100.00;95649.50;5007000;28;19939;-49
2022/10/20 07:11:52;;;;;;;;;;;17.00;68.70;;;12.22;100.00;95652.41;4985826;28;20391;-45
2022/10/20 07:14:19;;;;;;;;;;;17.10;68.70;;;12.31;100.00;95641.94;4973932;28;19909;-45
2022/10/20 07:16:48;;;;;;;;;;;17.20;68.60;;;12.40;100.00;95637.63;4992671;28;19917;-44
2022/10/20 07:19:19;;;;;;;;;;;17.30;68.50;;;12.48;100.00;95637.06;4977090;28;19928;-52
2022/10/20 07:21:51;;;;;;;;;;;17.50;68.40;;;12.62;100.00;95637.25;4979174;28;19909;-44
2022/10/20 07:24:20;;;;;;;;;;;17.70;68.20;;;12.72;100.00;95652.41;4990496;28;19913;-47
2022/10/20 07:26:49;;;;;;;;;;;17.80;68.00;;;12.85;100.00;95657.16;4987943;28;19910;-44
2022/10/20 07:29:21;;;;;;;;;;;18.00;67.90;;;12.98;100.00;95665.66;5006027;28;19910;-48
2022/10/20 07:31:48;;;;;;;;;;;18.20;67.90;;;13.14;100.00;95669.81;5006701;28;19917;-48
2022/10/20 07:34:18;;;;;;;;;;;18.30;67.80;;;13.31;100.00;95674.78;4984169;28;20035;-53
2022/10/20 07:36:50;;;;;;;;;;;18.50;67.80;;;13.43;100.00;95676.03;4992142;28;20400;-49
2022/10/20 07:39:19;;;;;;;;;;;18.80;67.70;;;13.56;100.00;95677.25;5002758;28;20400;-49
2022/10/20 07:41:53;;;;;;;;;;;19.10;67.50;;;13.76;100.00;95686.22;4991163;28;20396;-48
2022/10/20 07:44:19;;;;;;;;;;;19.40;67.10;;;13.95;100.00;95673.72;4991964;28;19913;-46
2022/10/20 07:46:54;;;;;;;;;;;19.70;66.80;;;14.15;100.00;95678.03;4994740;28;19910;-44
2022/10/20 07:49:23;;;;;;;;;;;20.00;66.50;;;14.29;97.92;95684.34;4987570;28;20380;-48
2022/10/20 07:51:55;;;;;;;;;;;20.20;66.10;;;14.45;98.54;95687.63;4962237;28;19916;-47
2022/10/20 07:54:24;;;;;;;;;;;20.30;65.80;;;14.65;97.60;95694.66;4973840;28;19916;-44
2022/10/20 07:56:50;;;;;;;;;;;20.40;65.80;;;14.63;95.30;95702.16;4990394;28;19918;-57
2022/10/20 07:59:16;;;;;;;;;;;20.50;65.70;;;14.73;95.64;95698.59;4991714;28;20380;-46
2022/10/20 08:01:45;;;;;;;;;;;20.50;65.60;;;14.73;94.67;95693.22;4990707;28;19948;-49
2022/10/20 08:04:11;;;;;;;;;;;20.50;65.50;;;14.74;93.19;95690.25;5005909;28;20003;-50
2022/10/20 08:06:37;;;;;;;;;;;20.50;65.30;;;14.78;93.77;95696.63;4990227;28;20000;-44
2022/10/20 08:09:03;;;;;;;;;;;20.50;65.20;;;14.77;91.68;95702.28;4989619;28;19909;-47
2022/10/20 08:11:32;;;;;;;;;;;20.40;65.10;;;14.75;92.15;95721.31;4962789;28;19909;-44
2022/10/20 08:13:58;;;;;;;;;;;20.40;65.00;;;14.77;92.75;95726.41;5006809;28;19916;-45
2022/10/20 08:16:24;;;;;;;;;;;20.30;65.00;;;14.75;92.55;95713.28;4979410;28;19938;-53
2022/10/20 08:18:50;;;;;;;;;;;20.30;65.00;;;14.69;92.37;95721.69;4991853;28;19914;-43
2022/10/20 08:21:20;;;;;;;;;;;20.30;64.90;;;14.69;91.63;95735.88;4989393;28;19939;-44
2022/10/20 08:23:51;;;;;;;;;;;20.20;64.80;;;14.62;92.06;95724.72;4991450;28;19953;-45
2022/10/20 08:26:23;;;;;;;;;;;20.10;64.70;;;14.72;92.64;95727.25;4991042;28;19962;-44
2022/10/20 08:28:53;;;;;;;;;;;20.10;64.70;;;14.68;92.38;95733.50;4996749;28;19919;-45
2022/10/20 08:31:20;;;;;;;;;;;20.00;64.60;;;14.65;92.29;95756.31;4990595;28;19909;-47
2022/10/20 08:33:52;;;;;;;;;;;20.00;64.60;;;14.66;91.29;95762.47;4984925;28;19909;-44
2022/10/20 08:36:21;;;;;;;;;;;20.00;64.50;;;14.61;91.82;95763.34;4973445;28;20007;-45
2022/10/20 08:38:47;;;;;;;;;;;20.00;64.30;;;14.50;91.42;95762.59;4995932;28;19918;-45
2022/10/20 08:41:36;;;;;;;;;;;20.00;64.30;;;14.44;92.10;95768.31;4982998;28;19920;-45
2022/10/20 08:44:06;;;;;;;;;;;19.90;64.20;;;14.38;92.71;95761.41;4970782;28;20394;-48
2022/10/20 08:46:39;;;;;;;;;;;19.80;64.10;;;14.26;91.47;95759.91;4998327;28;19955;-48
2022/10/20 08:49:24;;;;;;;;;;;19.70;64.10;;;14.22;91.74;95772.25;4990027;28;20364;-46
2022/10/20 08:51:53;;;;;;;;;;;19.70;64.10;;;14.20;91.95;95776.34;4989564;28;19932;-44
2022/10/20 08:54:21;;;;;;;;;;;19.70;64.80;;;14.25;91.08;95782.41;4987747;28;20367;31
2022/10/20 08:56:47;;;;;;;;;;;19.70;64.10;;;14.31;91.87;95775.94;4977029;28;19921;-51
2022/10/20 08:59:34;;;;;;;;;;;19.70;64.00;;;14.47;91.39;95771.22;4975636;28;20429;-50
2022/10/20 09:02:08;;;;;;;;;;;19.70;64.10;;;14.76;90.89;95765.84;4971655;28;19910;-52
2022/10/20 09:04:46;;;;;;;;;;;19.90;64.10;;;14.94;89.70;95750.84;4971814;28;19916;-51
2022/10/20 09:07:41;;;;;;;;;;;20.30;64.00;;;15.18;88.39;95763.44;4971990;28;20368;-52
2022/10/20 09:10:31;;;;;;;;;;;20.70;63.60;;;15.16;86.96;95769.06;4967641;28;20012;-51
2022/10/20 09:12:59;;;;;;;;;;;20.80;63.30;;;15.27;86.60;95762.50;4989805;28;19955;-50
2022/10/20 09:15:27;;;;;;;;;;;20.80;63.00;;;15.46;86.45;95759.03;4969049;28;19914;-50
2022/10/20 09:18:08;;;;;;;;;;;20.90;62.80;;;15.53;84.93;95758.66;4974181;28;19932;-53
2022/10/20 09:21:04;;;;;;;;;;;21.00;62.70;;;15.48;84.40;95756.81;4974478;28;19918;-52
2022/10/20 09:23:44;;;;;;;;;;;21.00;62.40;;;15.39;85.33;95764.75;4970605;28;19910;-53
2022/10/20 09:26:41;;;;;;;;;;;21.00;62.20;;;15.29;85.83;95762.19;4971919;28;19951;-47
2022/10/20 09:29:18;;;;;;;;;;;20.90;61.90;;;15.19;86.14;95765.81;4986637;28;19909;-52
2022/10/20 09:31:48;;;;;;;;;;;20.80;61.80;;;15.17;86.80;95761.84;4989790;28;20393;-48
2022/10/20 09:34:28;;;;;;;;;;;20.80;61.80;;;15.32;86.35;95764.31;4955875;28;19913;-52
2022/10/20 09:37:10;;;;;;;;;;;20.70;61.80;;;15.41;85.79;95759.09;4990799;28;19932;-52
2022/10/20 09:39:48;;;;;;;;;;;20.80;61.90;;;15.44;85.64;95758.50;4977949;28;20906;-50
2022/10/20 09:43:20;;;;;;;;;;;20.90;61.70;;;15.63;84.42;95764.66;4960447;28;19968;-50
2022/10/20 09:46:05;;;;;;;;;;;21.20;61.40;;;15.85;84.19;95755.22;4906638;29;19919;-50
2022/10/20 09:48:46;;;;;;;;;;;21.50;60.90;;;16.11;82.66;95759.09;4912162;29;20476;-52
2022/10/20 09:51:24;;;;;;;;;;;21.70;61.00;;;16.43;82.79;95766.31;4910653;29;19929;-51
2022/10/20 09:54:05;;;;;;;;;;;22.00;60.90;;;16.50;80.12;95755.16;4896117;29;19915;-51
2022/10/20 09:56:39;;;;;;;;;;;22.20;60.60;;;16.59;79.49;95766.03;4913724;29;26630;-51
2022/10/20 09:59:33;;;;;;;;;;;22.30;60.20;;;16.52;79.06;95769.13;4899070;29;20009;-51
2022/10/20 10:02:14;;;;;;;;;;;22.40;60.00;;;16.72;78.26;95765.22;4914719;29;19934;-50
2022/10/20 10:04:52;;;;;;;;;;;22.50;59.80;;;16.80;79.20;95764.56;4913820;29;19934;-54
2022/10/20 10:07:26;;;;;;;;;;;22.50;59.60;;;16.99;79.31;95772.53;4914940;29;20002;-52
2022/10/20 10:09:58;;;;;;;;;;;22.70;59.60;;;17.17;77.86;95760.03;4914096;29;19938;-50
2022/10/20 10:12:28;;;;;;;;;;;22.80;59.60;;;17.15;76.60;95761.47;4898939;29;20370;-50
2022/10/20 10:14:58;;;;;;;;;;;23.00;59.30;;;17.24;76.49;95760.44;4914185;29;19952;-48
2022/10/20 10:17:38;;;;;;;;;;;23.00;59.00;;;17.41;76.23;95759.00;4983531;28;19945;-48
2022/10/20 10:20:38;;;;;;;;;;;23.00;59.00;;;17.50;74.71;95754.47;4970482;28;19997;-53
2022/10/20 10:23:26;;;;;;;;;;;23.10;58.90;;;17.41;74.14;95751.72;4953283;28;20331;-51
2022/10/20 10:25:54;;;;;;;;;;;23.00;58.70;;;17.43;74.24;95752.22;4973019;28;19917;-51
2022/10/20 10:28:37;;;;;;;;;;;23.00;58.70;;;17.44;74.32;95744.94;4980276;28;19955;-51
2022/10/20 10:31:24;;;;;;;;;;;23.00;58.60;;;17.31;75.26;95750.03;4968623;28;20009;-48
2022/10/20 10:34:15;;;;;;;;;;;23.10;58.40;;;17.32;76.35;95751.63;4978040;28;19910;-50
2022/10/20 10:36:41;;;;;;;;;;;23.10;58.30;;;17.28;75.41;95750.66;4963896;28;19918;-54
2022/10/20 10:39:14;;;;;;;;;;;23.20;58.20;;;17.38;75.54;95743.44;4958591;28;19945;-51
2022/10/20 10:42:19;;;;;;;;;;;23.20;58.10;;;17.48;75.57;95754.78;4972856;28;19921;-50
2022/10/20 10:45:07;;;;;;;;;;;23.30;58.10;;;17.45;74.87;95735.75;4971457;28;20012;-51
2022/10/20 10:48:11;;;;;;;;;;;23.30;57.80;;;17.53;74.43;95730.44;4972782;28;19924;-52
2022/10/20 10:51:36;;;;;;;;;;;23.40;57.80;;;17.76;73.98;95704.28;4965172;28;19922;-54
2022/10/20 10:54:30;;;;;;;;;;;23.50;57.60;;;17.89;74.09;95693.78;4931912;29;19922;-52
2022/10/20 10:57:18;;;;;;;;;;;23.70;57.60;;;17.99;73.83;95683.56;4931822;29;19919;-54
2022/10/20 10:59:50;;;;;;;;;;;23.80;57.40;;;18.09;73.45;95671.72;4931362;29;20033;-53
2022/10/20 11:02:46;;;;;;;;;;;24.00;57.20;;;18.19;71.81;95678.72;4916119;29;20360;-51
2022/10/20 11:05:33;;;;;;;;;;;24.30;57.10;;;18.34;71.75;95670.22;4928693;29;19915;-51
2022/10/20 11:08:20;;;;;;;;;;;24.50;56.90;;;18.53;70.79;95661.88;4931973;29;20296;-51
2022/10/20 11:11:31;;;;;;;;;;;24.70;56.70;;;18.69;69.95;95651.44;4930543;28;19922;-49
2022/10/20 11:14:41;;;;;;;;;;;24.90;56.50;;;18.91;70.26;95639.75;4931798;29;20393;-52
2022/10/20 11:17:16;;;;;;;;;;;25.20;56.20;;;18.99;68.42;95625.50;4916472;28;19910;-49
2022/10/20 11:19:50;;;;;;;;;;;25.50;56.00;;;19.09;69.98;95629.78;4928784;28;19922;-48
2022/10/20 11:23:04;;;;;;;;;;;25.60;55.70;;;19.30;68.42;95636.09;4929781;28;19910;-56
2022/10/20 11:26:09;;;;;;;;;;;25.80;55.60;;;19.31;68.04;95639.63;4942890;28;19918;-48
2022/10/20 11:28:45;;;;;;;;;;;25.90;55.30;;;19.38;68.62;95648.03;4972518;28;19929;-51
2022/10/20 11:31:41;;;;;;;;;;;26.00;55.10;;;19.53;68.74;95663.75;4962344;28;19952;-50
2022/10/20 11:34:19;;;;;;;;;;;26.10;55.00;;;19.29;67.68;95661.53;4975135;28;19964;-47
2022/10/20 11:37:22;;;;;;;;;;;26.20;54.70;;;19.32;67.16;95657.41;4970921;28;19910;-54
2022/10/20 11:40:08;;;;;;;;;;;26.10;54.40;;;19.53;66.34;95657.56;4970605;28;19917;-51
2022/10/20 11:43:42;;;;;;;;;;;26.10;54.40;;;19.48;66.39;95655.00;4987057;28;19921;-49
2022/10/20 11:46:26;;;;;;;;;;;26.00;54.20;;;19.84;65.91;95660.09;4937560;28;19917;-50
2022/10/20 11:48:55;;;;;;;;;;;26.10;54.10;;;19.83;65.01;95664.69;4978378;28;20468;-48